Time;durP1;ratioP1;P1;durP2;ratioP2;P2;SDS_P1;SDS_P2;PMS_P1;PMS_P2;Temp;Humidity;BMP_temperature;BMP_pressure;BME280_temperature;BME280_humidity;BME280_pressure;Samples;Min_cycle;Max_cycle;Signal;HPM_P1;HPM_P2
2023/01/15 00:00:13;;;;;;;10.48;1.00;;;6.60;93.40;;;;;;5086656;28;20410;-92
2023/01/15 00:02:38;;;;;;;8.73;0.75;;;6.60;93.70;;;;;;5087967;28;20411;-91
2023/01/15 00:05:05;;;;;;;11.07;1.15;;;7.30;93.50;;;;;;5086687;28;20404;-92
2023/01/15 00:07:30;;;;;;;13.23;1.42;;;6.70;93.70;;;;;;5087694;28;20741;-93
2023/01/15 00:09:56;;;;;;;10.75;0.98;;;6.40;93.30;;;;;;5086999;28;20403;-92
2023/01/15 00:12:22;;;;;;;11.63;1.58;;;6.70;93.30;;;;;;5086924;28;20940;-93
2023/01/15 00:14:47;;;;;;;9.47;1.33;;;6.90;93.60;;;;;;5087544;28;20404;-91
2023/01/15 00:17:13;;;;;;;10.50;1.10;;;6.70;93.50;;;;;;5086176;28;20792;-91
2023/01/15 00:19:39;;;;;;;10.20;0.80;;;6.70;93.50;;;;;;5087775;28;20413;-92
2023/01/15 00:22:04;;;;;;;10.00;0.80;;;6.70;93.10;;;;;;5086313;28;20435;-92
2023/01/15 00:29:58;;;;;;;10.60;1.27;;;6.70;93.30;;;;;;5103614;28;20483;-91
2023/01/15 00:32:26;;;;;;;12.27;1.30;;;6.70;93.00;;;;;;5087803;28;21021;-92
2023/01/15 00:34:52;;;;;;;8.20;1.10;;;6.80;93.20;;;;;;5102969;28;20441;-92
2023/01/15 00:37:17;;;;;;;11.13;1.43;;;6.80;93.20;;;;;;5087749;28;20392;-92
2023/01/15 00:39:43;;;;;;;9.80;1.25;;;6.80;93.30;;;;;;5086699;28;20400;-91
2023/01/15 00:42:10;;;;;;;9.45;1.05;;;6.80;93.30;;;;;;5087255;28;20438;-92
2023/01/15 00:44:36;;;;;;;11.45;1.10;;;6.80;93.20;;;;;;5089142;28;20397;-89
2023/01/15 00:47:02;;;;;;;11.75;1.30;;;6.80;93.30;;;;;;5090468;28;20887;-91
2023/01/15 00:49:27;;;;;;;12.98;1.38;;;6.80;93.10;;;;;;5090888;28;20444;-92
2023/01/15 00:51:55;;;;;;;10.90;1.48;;;6.80;93.50;;;;;;5089687;27;20528;-92
2023/01/15 00:54:21;;;;;;;9.30;1.20;;;6.80;93.40;;;;;;5094758;27;20438;-91
2023/01/15 00:56:46;;;;;;;10.98;1.35;;;6.80;93.00;;;;;;5093562;27;20501;-93
2023/01/15 00:59:12;;;;;;;12.77;1.20;;;6.80;93.50;;;;;;5094735;27;20405;-91
2023/01/15 01:01:39;;;;;;;10.40;0.80;;;6.80;93.30;;;;;;5110221;27;20518;-93
2023/01/15 01:04:06;;;;;;;10.77;1.20;;;6.80;93.40;;;;;;5094453;27;20399;-91
2023/01/15 01:06:31;;;;;;;12.70;1.20;;;6.80;93.10;;;;;;5094319;27;20481;-90
2023/01/15 01:08:57;;;;;;;11.07;1.27;;;7.00;93.20;;;;;;5093844;27;20945;-92
2023/01/15 01:11:25;;;;;;;11.33;1.40;;;6.70;93.10;;;;;;5094609;27;20866;-91
2023/01/15 01:13:52;;;;;;;13.10;2.00;;;6.70;93.30;;;;;;5093478;27;20837;-93
2023/01/15 01:16:30;;;;;;;12.10;1.17;;;6.70;93.50;;;;;;5094623;27;20510;-91
2023/01/15 01:18:57;;;;;;;13.35;1.40;;;6.60;93.70;;;;;;5093589;27;20402;-92
2023/01/15 01:21:23;;;;;;;14.02;1.27;;;6.60;93.20;;;;;;5094563;27;20834;-90
2023/01/15 01:23:49;;;;;;;9.30;0.97;;;6.90;93.40;;;;;;5093448;27;20395;-90
2023/01/15 01:26:15;;;;;;;14.53;1.90;;;6.60;93.60;;;;;;5093036;27;20491;-92
2023/01/15 01:28:41;;;;;;;10.77;1.17;;;6.70;93.50;;;;;;5094150;27;20410;-92
2023/01/15 01:31:08;;;;;;;10.47;0.90;;;6.60;93.40;;;;;;5092829;27;20399;-92
2023/01/15 01:33:34;;;;;;;12.20;1.57;;;6.60;93.40;;;;;;5095196;27;20850;-92
2023/01/15 01:36:00;;;;;;;12.32;1.58;;;6.70;93.30;;;;;;5092633;27;20427;-92
2023/01/15 01:38:26;;;;;;;13.50;1.50;;;6.80;93.30;;;;;;5110766;27;20909;-93
2023/01/15 01:40:52;;;;;;;10.68;0.85;;;6.60;93.40;;;;;;5092917;27;20411;-91
2023/01/15 01:43:21;;;;;;;12.23;1.58;;;6.60;93.00;;;;;;5093575;27;20399;-90
2023/01/15 01:45:47;;;;;;;16.52;1.38;;;6.80;93.20;;;;;;5106863;28;20419;-91
2023/01/15 01:48:15;;;;;;;11.85;1.40;;;6.70;93.50;;;;;;5089165;28;20393;-93
2023/01/15 01:50:42;;;;;;;10.48;1.35;;;6.90;93.00;;;;;;5090317;28;20397;-92
2023/01/15 01:53:18;;;;;;;12.05;1.60;;;6.70;93.00;;;;;;5089545;28;20928;-92
2023/01/15 01:55:43;;;;;;;12.40;1.42;;;6.70;92.70;;;;;;5089761;28;20455;-90
2023/01/15 01:58:11;;;;;;;10.27;1.10;;;6.60;92.90;;;;;;5089212;28;20428;-92
2023/01/15 02:00:39;;;;;;;13.38;1.70;;;6.70;92.30;;;;;;5089831;28;20396;-92
2023/01/15 02:03:07;;;;;;;13.00;1.17;;;6.70;92.50;;;;;;5089716;28;20926;-91
2023/01/15 02:05:36;;;;;;;11.43;1.27;;;6.60;92.40;;;;;;5087501;28;20392;-92
2023/01/15 02:08:04;;;;;;;11.65;1.52;;;6.50;92.50;;;;;;5089804;28;20396;-91
2023/01/15 02:10:29;;;;;;;10.73;1.30;;;6.60;92.60;;;;;;5088363;28;20404;-91
2023/01/15 02:13:17;;;;;;;9.45;1.00;;;6.80;92.60;;;;;;5089637;28;20396;-91
2023/01/15 02:15:47;;;;;;;12.80;1.42;;;6.60;92.50;;;;;;5089288;28;20775;-91
2023/01/15 02:18:21;;;;;;;12.48;1.33;;;6.60;92.80;;;;;;5088639;28;20392;-93
2023/01/15 02:21:10;;;;;;;10.60;1.40;;;6.50;92.70;;;;;;5089656;28;20450;-93
2023/01/15 02:24:00;;;;;;;9.60;1.38;;;6.50;92.70;;;;;;5088643;28;20408;-90
2023/01/15 02:27:09;;;;;;;11.68;1.45;;;6.50;92.50;;;;;;5106475;28;20423;-92
2023/01/15 02:29:53;;;;;;;14.43;1.63;;;6.50;92.70;;;;;;5089120;28;20442;-92
2023/01/15 02:32:44;;;;;;;12.48;1.23;;;6.50;92.60;;;;;;5088031;28;20440;-92
2023/01/15 02:35:23;;;;;;;13.57;1.13;;;6.50;93.00;;;;;;5089301;28;20458;-93
2023/01/15 02:37:53;;;;;;;13.38;1.27;;;6.70;92.70;;;;;;5089358;28;20405;-92
2023/01/15 02:40:21;;;;;;;12.82;1.45;;;6.50;92.20;;;;;;5088654;28;20493;-92
2023/01/15 02:42:48;;;;;;;10.95;1.13;;;6.50;92.40;;;;;;5088995;28;20487;-93
2023/01/15 02:45:18;;;;;;;14.07;1.40;;;6.50;92.30;;;;;;5088083;28;20407;-91
2023/01/15 02:47:46;;;;;;;11.80;1.87;;;6.50;92.40;;;;;;5089203;28;20436;-92
2023/01/15 02:50:16;;;;;;;12.07;1.30;;;6.50;92.50;;;;;;5088405;28;20479;-90
2023/01/15 02:52:50;;;;;;;13.00;1.33;;;6.40;92.40;;;;;;5088397;28;20412;-92
2023/01/15 02:55:27;;;;;;;12.25;1.25;;;6.50;92.20;;;;;;5089368;28;20423;-91
2023/01/15 02:57:57;;;;;;;14.35;1.88;;;6.50;93.40;;;;;;5104847;28;20440;-92
2023/01/15 03:00:24;;;;;;;16.00;1.50;;;6.40;94.50;;;;;;5088704;28;20392;-91
2023/01/15 03:02:59;;;;;;;15.40;1.20;;;6.30;95.80;;;;;;5087727;28;20545;-91
2023/01/15 03:05:41;;;;;;;15.93;1.70;;;6.20;96.10;;;;;;5088464;28;20400;-90
2023/01/15 03:08:08;;;;;;;15.50;1.58;;;6.10;96.50;;;;;;5088750;28;20438;-91
2023/01/15 03:10:44;;;;;;;14.37;2.10;;;6.00;96.70;;;;;;5086912;28;20436;-90
2023/01/15 03:13:16;;;;;;;13.18;1.40;;;5.90;96.90;;;;;;5088623;28;20404;-92
2023/01/15 03:18:51;;;;;;;12.05;1.40;;;5.90;96.60;;;;;;5104857;28;20786;-93
2023/01/15 03:21:22;;;;;;;12.40;1.40;;;5.90;96.20;;;;;;5105382;28;20429;-90
2023/01/15 03:23:52;;;;;;;12.90;1.20;;;5.80;96.00;;;;;;5087193;28;20483;-91
2023/01/15 03:26:18;;;;;;;14.65;1.67;;;5.80;96.00;;;;;;5105415;28;20435;-91
2023/01/15 03:28:44;;;;;;;12.77;1.30;;;5.90;96.10;;;;;;5087309;28;20927;-91
2023/01/15 03:31:10;;;;;;;14.63;1.95;;;5.90;96.10;;;;;;5088126;28;20408;-92
2023/01/15 03:33:36;;;;;;;14.73;1.65;;;5.90;95.60;;;;;;5087979;28;20733;-91
2023/01/15 03:36:02;;;;;;;11.82;1.20;;;5.80;95.50;;;;;;5087608;28;20478;-93
2023/01/15 03:38:34;;;;;;;12.30;1.45;;;5.80;95.50;;;;;;5087961;28;20432;-92
2023/01/15 03:41:13;;;;;;;13.38;1.40;;;5.90;95.00;;;;;;5086883;28;20408;-91
2023/01/15 03:43:57;;;;;;;14.75;1.30;;;5.90;94.70;;;;;;5105554;28;20400;-93
2023/01/15 03:46:35;;;;;;;11.90;1.55;;;5.90;95.00;;;;;;5087194;28;20412;-91
2023/01/15 03:49:06;;;;;;;13.85;1.45;;;5.90;94.60;;;;;;5087506;28;20408;-91
2023/01/15 03:52:01;;;;;;;12.55;1.23;;;5.90;94.60;;;;;;5088190;28;20456;-91
2023/01/15 03:54:56;;;;;;;10.77;1.03;;;6.00;94.40;;;;;;5084897;28;20405;-92
2023/01/15 03:57:36;;;;;;;10.88;1.08;;;5.90;94.30;;;;;;5084247;28;20428;-92
2023/01/15 04:00:26;;;;;;;9.43;1.10;;;5.90;94.30;;;;;;5088485;28;20427;-92
2023/01/15 04:02:54;;;;;;;11.15;1.38;;;5.90;94.00;;;;;;5086781;28;20403;-91
2023/01/15 04:05:21;;;;;;;10.65;0.90;;;6.00;94.10;;;;;;5104619;28;20396;-91
2023/01/15 04:07:48;;;;;;;12.57;1.35;;;5.80;94.00;;;;;;5086620;28;20408;-91
2023/01/15 04:10:14;;;;;;;12.73;1.45;;;5.90;94.20;;;;;;5087499;28;20690;-92
2023/01/15 04:12:39;;;;;;;13.98;2.08;;;5.70;93.50;;;;;;5086713;28;20403;-90
2023/01/15 04:15:05;;;;;;;10.43;1.10;;;5.90;93.60;;;;;;5087128;28;20415;-91
2023/01/15 04:17:31;;;;;;;12.15;1.05;;;5.80;93.80;;;;;;5087489;28;20400;-92
2023/01/15 04:19:57;;;;;;;14.03;1.60;;;5.80;93.80;;;;;;5086137;28;20410;-91
2023/01/15 04:22:22;;;;;;;9.60;1.00;;;5.80;93.50;;;;;;5087713;28;20436;-91
2023/01/15 04:24:48;;;;;;;12.10;1.83;;;5.80;93.60;;;;;;5086590;28;20442;-91
2023/01/15 04:27:14;;;;;;;13.17;1.40;;;5.80;93.40;;;;;;5088060;28;20400;-91
2023/01/15 04:29:39;;;;;;;12.13;1.40;;;5.80;93.10;;;;;;5091137;28;20404;-92
2023/01/15 04:32:05;;;;;;;10.48;1.33;;;5.90;93.20;;;;;;5091831;28;20388;-92
2023/01/15 04:34:30;;;;;;;10.55;0.80;;;5.90;93.10;;;;;;5091197;28;20403;-91
2023/01/15 04:36:56;;;;;;;10.00;0.93;;;5.80;93.00;;;;;;5090579;28;20426;-92
2023/01/15 04:39:22;;;;;;;9.57;1.20;;;5.80;93.00;;;;;;5091574;28;20472;-90
2023/01/15 04:44:33;;;;;;;11.43;1.55;;;5.80;93.20;;;;;;5110319;27;20407;-92
2023/01/15 04:46:59;;;;;;;13.30;1.40;;;5.80;92.90;;;;;;5094028;27;20441;-92
2023/01/15 04:49:26;;;;;;;9.93;1.20;;;5.80;93.10;;;;;;5094750;27;20430;-89
2023/01/15 04:51:51;;;;;;;11.00;1.10;;;5.80;93.30;;;;;;5094779;27;20394;-89
2023/01/15 04:54:18;;;;;;;13.35;1.02;;;5.70;93.20;;;;;;5094038;27;20488;-93
2023/01/15 04:56:46;;;;;;;13.30;1.65;;;5.70;93.30;;;;;;5094371;27;20418;-92
2023/01/15 04:59:12;;;;;;;10.63;1.30;;;5.70;93.10;;;;;;5093112;27;20402;-93
2023/01/15 05:01:38;;;;;;;11.25;1.27;;;5.60;92.90;;;;;;5094267;27;20419;-92
2023/01/15 05:04:04;;;;;;;11.02;1.13;;;5.70;92.80;;;;;;5093596;27;20478;-91
2023/01/15 05:06:30;;;;;;;13.02;1.42;;;5.70;92.80;;;;;;5094242;27;20489;-93
2023/01/15 05:08:57;;;;;;;10.40;0.95;;;5.60;92.90;;;;;;5093741;27;20919;-91
2023/01/15 05:11:23;;;;;;;10.98;1.15;;;5.60;93.00;;;;;;5093915;27;20447;-92
2023/01/15 05:13:49;;;;;;;11.50;1.25;;;5.60;93.10;;;;;;5094196;27;20402;-91
2023/01/15 05:16:19;;;;;;;9.55;1.23;;;5.60;93.10;;;;;;5110239;27;20434;-92
2023/01/15 05:18:46;;;;;;;10.38;1.00;;;5.50;93.10;;;;;;5094235;27;20409;-92
2023/01/15 05:21:21;;;;;;;10.57;1.08;;;5.60;93.10;;;;;;5093043;27;20398;-91
2023/01/15 05:23:48;;;;;;;10.15;1.05;;;5.50;93.00;;;;;;5093989;27;20921;-91
2023/01/15 05:26:14;;;;;;;10.13;0.90;;;5.50;93.10;;;;;;5093557;27;20867;-91
2023/01/15 05:28:40;;;;;;;11.30;1.00;;;5.70;93.00;;;;;;5093821;27;20474;-91
2023/01/15 05:31:08;;;;;;;12.00;1.10;;;5.40;92.80;;;;;;5094113;27;20403;-92
2023/01/15 05:33:35;;;;;;;9.35;1.42;;;5.40;93.00;;;;;;5093033;27;20743;-90
2023/01/15 05:36:06;;;;;;;12.75;0.82;;;5.60;92.90;;;;;;5093841;27;20425;-91
2023/01/15 05:38:32;;;;;;;11.05;1.05;;;5.40;93.00;;;;;;5093020;27;20920;-91
2023/01/15 05:40:58;;;;;;;13.77;1.23;;;5.30;93.00;;;;;;5111435;27;20744;-91
2023/01/15 05:43:24;;;;;;;15.15;1.15;;;5.70;93.20;;;;;;5092858;27;20806;-92
2023/01/15 05:45:50;;;;;;;12.77;1.13;;;5.30;93.10;;;;;;5093428;27;20402;-93
2023/01/15 05:48:15;;;;;;;13.90;1.60;;;5.30;93.20;;;;;;5093956;27;20471;-90
2023/01/15 05:50:41;;;;;;;13.25;1.10;;;5.30;93.10;;;;;;5093049;27;20456;-94
2023/01/15 05:53:07;;;;;;;11.27;1.02;;;5.30;93.30;;;;;;5093434;27;20428;-91
2023/01/15 05:55:32;;;;;;;15.83;1.37;;;5.20;93.10;;;;;;5092862;27;20475;-91
2023/01/15 05:57:58;;;;;;;8.40;0.90;;;5.20;93.00;;;;;;5093681;27;20407;-90
2023/01/15 06:00:24;;;;;;;10.98;0.75;;;5.20;92.80;;;;;;5092874;27;20415;-91
2023/01/15 06:02:51;;;;;;;11.90;1.17;;;5.20;93.00;;;;;;5093495;27;20482;-92
2023/01/15 06:05:19;;;;;;;13.47;1.17;;;5.10;92.80;;;;;;5092683;27;20399;-90
2023/01/15 06:07:51;;;;;;;10.23;0.97;;;5.40;92.90;;;;;;5092955;27;20416;-91
2023/01/15 06:10:17;;;;;;;11.85;1.30;;;5.30;92.70;;;;;;5093247;27;20402;-92
2023/01/15 06:12:43;;;;;;;10.10;1.03;;;5.10;92.70;;;;;;5091483;27;20401;-91
2023/01/15 06:15:13;;;;;;;9.93;0.97;;;5.20;92.50;;;;;;5092891;27;20972;-92
2023/01/15 06:17:38;;;;;;;10.38;1.48;;;5.20;92.70;;;;;;5085941;27;20410;-91
2023/01/15 06:20:04;;;;;;;9.90;1.00;;;5.20;92.40;;;;;;5093109;27;20475;-92
2023/01/15 06:22:30;;;;;;;8.45;1.10;;;5.20;92.30;;;;;;5091924;27;20718;-90
2023/01/15 06:24:55;;;;;;;8.63;0.83;;;5.20;92.50;;;;;;5092271;27;20479;-91
2023/01/15 06:27:21;;;;;;;11.80;1.13;;;5.10;92.30;;;;;;5109357;27;20912;-93
2023/01/15 06:29:46;;;;;;;10.68;1.17;;;5.20;92.40;;;;;;5091934;27;20614;-91
2023/01/15 06:32:12;;;;;;;9.17;0.90;;;5.20;92.50;;;;;;5093449;27;20395;-90
2023/01/15 06:34:40;;;;;;;8.55;0.75;;;5.20;92.30;;;;;;5091723;27;20402;-91
2023/01/15 06:37:06;;;;;;;9.60;1.10;;;5.20;92.10;;;;;;5092558;27;20418;-91
2023/01/15 06:39:31;;;;;;;10.82;1.00;;;5.20;92.00;;;;;;5091481;27;20399;-93
2023/01/15 06:47:25;;;;;;;9.45;0.90;;;5.20;91.90;;;;;;5108402;27;20399;-92
2023/01/15 06:49:53;;;;;;;8.27;0.88;;;5.30;91.60;;;;;;5092062;27;20440;-90
2023/01/15 06:52:19;;;;;;;11.70;1.42;;;5.40;91.50;;;;;;5091785;27;20422;-92
2023/01/15 06:54:45;;;;;;;9.07;0.60;;;5.30;91.10;;;;;;5092185;27;20430;-90
2023/01/15 06:57:11;;;;;;;10.32;0.82;;;5.20;90.80;;;;;;5091586;27;20935;-91
2023/01/15 06:59:36;;;;;;;8.95;0.95;;;5.30;91.10;;;;;;5091599;27;20398;-92
2023/01/15 07:02:02;;;;;;;8.87;1.00;;;5.30;90.90;;;;;;5092424;27;20394;-91
2023/01/15 07:04:27;;;;;;;10.20;1.10;;;5.30;91.00;;;;;;5091054;27;20411;-91
2023/01/15 07:06:53;;;;;;;8.70;0.80;;;5.20;91.10;;;;;;5109184;27;20394;-92
2023/01/15 07:09:19;;;;;;;9.27;0.87;;;5.20;90.90;;;;;;5091159;27;20395;-90
2023/01/15 07:11:50;;;;;;;8.67;0.63;;;5.30;90.90;;;;;;5092017;27;20403;-91
2023/01/15 07:14:21;;;;;;;8.60;0.90;;;5.40;91.10;;;;;;5090805;27;20386;-89
2023/01/15 07:16:47;;;;;;;9.40;1.08;;;5.40;90.80;;;;;;5091433;27;20427;-92
2023/01/15 07:19:13;;;;;;;9.82;1.10;;;5.40;90.50;;;;;;5091589;27;20491;-90
2023/01/15 07:21:39;;;;;;;8.00;0.70;;;5.50;90.50;;;;;;5091132;27;20894;-89
2023/01/15 07:24:05;;;;;;;9.15;0.70;;;5.50;90.00;;;;;;5108893;27;20458;-91
2023/01/15 07:26:31;;;;;;;6.82;0.70;;;5.60;89.40;;;;;;5090707;27;20946;-93
2023/01/15 07:28:56;;;;;;;8.38;0.70;;;5.60;90.00;;;;;;5091585;27;20447;-91
2023/01/15 07:31:22;;;;;;;10.07;0.77;;;5.50;89.50;;;;;;5107637;27;20414;-89
2023/01/15 07:33:47;;;;;;;8.57;0.77;;;5.70;89.50;;;;;;5091242;27;20463;-90
2023/01/15 07:36:13;;;;;;;10.73;0.98;;;5.50;89.30;;;;;;5090645;27;20480;-90
2023/01/15 07:38:39;;;;;;;9.75;1.00;;;5.50;89.10;;;;;;5090597;27;20433;-90
2023/01/15 07:52:01;;;;;;;9.07;0.73;;;5.40;89.90;;;;;;5107528;27;20722;-91
2023/01/15 07:54:28;;;;;;;9.83;1.00;;;5.40;89.70;;;;;;5091370;27;20406;-91
2023/01/15 07:56:55;;;;;;;10.75;0.90;;;5.40;89.60;;;;;;5089750;27;20661;-92
2023/01/15 07:59:21;;;;;;;9.02;0.70;;;5.40;90.20;;;;;;5091182;27;20470;-89
2023/01/15 08:01:47;;;;;;;7.85;0.80;;;5.40;89.50;;;;;;5089378;28;20489;-90
2023/01/15 08:04:12;;;;;;;10.32;0.93;;;5.50;89.30;;;;;;5090366;27;20395;-91
2023/01/15 08:06:38;;;;;;;10.87;0.80;;;5.50;90.30;;;;;;5090528;27;20417;-92
2023/01/15 08:09:04;;;;;;;8.57;0.93;;;5.50;90.80;;;;;;5090901;28;20403;-90
2023/01/15 08:16:58;;;;;;;10.02;1.20;;;5.50;89.70;;;;;;5107993;28;20513;-91
2023/01/15 08:19:24;;;;;;;8.83;0.80;;;5.50;90.00;;;;;;5090890;28;20504;-91
2023/01/15 08:21:50;;;;;;;9.02;1.20;;;5.50;90.00;;;;;;5090415;28;20448;-91
2023/01/15 08:24:16;;;;;;;8.82;0.82;;;5.60;90.30;;;;;;5090394;28;20406;-91
2023/01/15 08:26:42;;;;;;;7.03;0.63;;;5.60;90.40;;;;;;5089785;28;20915;-90
2023/01/15 08:29:07;;;;;;;9.20;0.80;;;5.60;90.10;;;;;;5091158;28;20430;-91
2023/01/15 08:31:33;;;;;;;11.23;1.02;;;5.70;90.20;;;;;;5089958;28;20418;-91
2023/01/15 08:33:59;;;;;;;8.40;0.70;;;5.90;90.70;;;;;;5090858;28;20414;-92
2023/01/15 08:36:25;;;;;;;11.30;1.00;;;5.80;90.50;;;;;;5089671;28;20418;-92
2023/01/15 08:38:51;;;;;;;9.88;1.00;;;5.70;90.30;;;;;;5107552;28;20475;-90
2023/01/15 08:41:17;;;;;;;11.10;0.80;;;5.90;90.80;;;;;;5090014;28;20960;-92
2023/01/15 08:43:44;;;;;;;9.77;0.70;;;5.70;91.00;;;;;;5089865;28;20429;-89
2023/01/15 08:46:10;;;;;;;9.75;1.40;;;5.60;90.80;;;;;;5090394;28;20890;-91
2023/01/15 08:48:36;;;;;;;8.70;0.97;;;5.50;90.40;;;;;;5089543;28;20395;-90
2023/01/15 08:51:06;;;;;;;8.47;0.63;;;5.50;90.50;;;;;;5090973;28;20754;-91
2023/01/15 08:53:33;;;;;;;9.40;0.90;;;5.50;90.70;;;;;;5106596;28;20398;-91
2023/01/15 08:55:59;;;;;;;9.55;1.13;;;5.40;90.90;;;;;;5090136;28;20407;-92
2023/01/15 08:58:30;;;;;;;9.57;1.05;;;5.50;91.10;;;;;;5106947;28;20462;-89
2023/01/15 09:01:02;;;;;;;11.60;0.80;;;5.70;91.10;;;;;;5090627;28;20398;-90
2023/01/15 09:03:28;;;;;;;11.00;0.77;;;5.50;90.90;;;;;;5107429;28;20484;-91
2023/01/15 09:05:56;;;;;;;6.57;0.80;;;5.60;91.30;;;;;;5089077;28;20395;-92
2023/01/15 09:08:22;;;;;;;9.77;1.53;;;5.60;91.20;;;;;;5090286;28;20403;-90
2023/01/15 09:10:47;;;;;;;9.20;1.17;;;5.60;91.50;;;;;;5089625;28;20406;-89
2023/01/15 09:13:13;;;;;;;10.55;1.10;;;5.60;91.70;;;;;;5090708;27;20466;-91
2023/01/15 09:15:39;;;;;;;9.00;0.93;;;5.80;91.40;;;;;;5093525;27;20805;-89
2023/01/15 09:18:04;;;;;;;9.97;0.53;;;5.70;91.00;;;;;;5094001;27;20402;-90
2023/01/15 09:20:30;;;;;;;9.63;0.70;;;5.70;91.10;;;;;;5093587;27;20403;-91
2023/01/15 09:22:55;;;;;;;9.20;1.17;;;5.70;90.80;;;;;;5093424;27;20413;-91
2023/01/15 09:25:23;;;;;;;10.80;1.13;;;5.80;90.90;;;;;;5093760;27;20406;-92
2023/01/15 09:27:49;;;;;;;9.45;1.15;;;5.80;90.90;;;;;;5092669;27;20398;-92
2023/01/15 09:30:20;;;;;;;8.05;1.20;;;5.80;90.80;;;;;;5110956;27;21036;-91
2023/01/15 09:32:46;;;;;;;9.20;0.85;;;5.90;91.00;;;;;;5092646;27;20390;-90
2023/01/15 09:35:12;;;;;;;11.90;1.25;;;6.00;91.30;;;;;;5093987;27;20773;-91
2023/01/15 09:37:38;;;;;;;9.17;1.10;;;6.10;91.10;;;;;;5110549;27;20399;-90
2023/01/15 09:40:07;;;;;;;10.90;1.03;;;6.40;91.10;;;;;;5093050;27;20395;-89
2023/01/15 09:42:47;;;;;;;9.77;0.75;;;6.20;90.70;;;;;;5093373;27;20405;-90
2023/01/15 09:45:23;;;;;;;10.93;0.95;;;6.20;90.40;;;;;;5091934;27;20473;-90
2023/01/15 09:47:52;;;;;;;9.18;0.90;;;6.40;90.30;;;;;;5093730;27;20873;-89
2023/01/15 09:50:23;;;;;;;11.43;1.40;;;6.50;90.00;;;;;;5092577;27;20399;-88
2023/01/15 09:52:48;;;;;;;10.90;0.90;;;6.40;90.40;;;;;;5093020;27;20403;-89
2023/01/15 09:55:21;;;;;;;9.57;1.02;;;6.50;90.80;;;;;;5093319;27;20407;-93
2023/01/15 09:57:51;;;;;;;9.35;1.00;;;6.50;91.10;;;;;;5092554;27;20395;-92
2023/01/15 10:00:23;;;;;;;9.13;1.25;;;6.60;90.70;;;;;;5110468;27;20395;-92
2023/01/15 10:02:52;;;;;;;10.57;1.50;;;6.70;90.40;;;;;;5109057;27;20951;-90
2023/01/15 10:05:25;;;;;;;9.82;1.38;;;6.70;90.60;;;;;;5093408;27;20403;-91
2023/01/15 10:08:03;;;;;;;10.65;1.52;;;6.90;90.20;;;;;;5092622;27;20399;-90
2023/01/15 10:10:53;;;;;;;9.13;1.00;;;7.10;89.40;;;;;;5092700;27;20407;-91
2023/01/15 10:13:34;;;;;;;10.82;1.23;;;7.40;89.40;;;;;;5109802;27;20718;-88
2023/01/15 10:16:00;;;;;;;10.00;1.00;;;7.40;87.90;;;;;;5091989;27;20777;-89
2023/01/15 10:18:27;;;;;;;7.22;0.77;;;7.30;88.60;;;;;;5093378;27;20462;-89
2023/01/15 10:21:09;;;;;;;7.85;1.00;;;7.20;88.40;;;;;;5092486;27;20769;-87
2023/01/15 10:23:45;;;;;;;8.13;0.50;;;7.00;88.60;;;;;;5092258;27;20414;-93
2023/01/15 10:26:26;;;;;;;9.07;0.73;;;7.00;89.20;;;;;;5092513;27;20403;-92
2023/01/15 10:28:57;;;;;;;9.50;1.10;;;7.00;89.80;;;;;;5108990;27;20754;-90
2023/01/15 10:31:34;;;;;;;8.43;0.77;;;7.00;90.20;;;;;;5093084;27;20811;-91
2023/01/15 10:34:28;;;;;;;10.70;1.17;;;7.10;90.40;;;;;;5092575;27;20822;-91
2023/01/15 10:37:18;;;;;;;11.15;1.17;;;7.30;90.10;;;;;;5091526;27;20417;-92
2023/01/15 10:40:04;;;;;;;12.60;1.42;;;7.60;90.00;;;;;;5109993;27;20414;-89
2023/01/15 10:42:42;;;;;;;11.68;1.20;;;7.80;88.00;;;;;;5091355;27;20398;-91
2023/01/15 10:45:24;;;;;;;9.63;1.02;;;8.10;86.80;;;;;;5091077;27;20493;-91
2023/01/15 10:48:01;;;;;;;8.45;1.30;;;8.30;85.60;;;;;;5092542;27;20951;-89
2023/01/15 10:50:27;;;;;;;9.30;1.15;;;8.60;85.10;;;;;;5108257;27;20410;-93
2023/01/15 10:53:20;;;;;;;9.48;1.10;;;8.80;83.80;;;;;;5092548;27;20482;-89
2023/01/15 10:56:13;;;;;;;9.57;1.20;;;9.00;82.80;;;;;;5092231;27;20419;-90
2023/01/15 10:58:45;;;;;;;10.75;1.35;;;9.10;81.30;;;;;;5098155;27;20430;-92
2023/01/15 11:01:18;;;;;;;11.45;1.13;;;9.00;80.40;;;;;;5091969;27;20399;-89
2023/01/15 11:03:44;;;;;;;10.18;1.20;;;8.80;82.80;;;;;;5108475;27;20439;-93
2023/01/15 11:06:18;;;;;;;10.93;1.17;;;8.60;82.50;;;;;;5092450;27;20769;-92
2023/01/15 11:08:51;;;;;;;11.20;0.90;;;8.40;84.00;;;;;;5091688;27;20411;-90
2023/01/15 11:20:43;;;;;;;13.02;1.20;;;7.90;85.30;;;;;;5107600;27;20404;-93
2023/01/15 11:23:14;;;;;;;7.88;0.80;;;7.80;85.60;;;;;;5109029;27;20464;-93
2023/01/15 11:25:58;;;;;;;9.70;1.13;;;7.80;84.90;;;;;;5090612;27;20398;-92
2023/01/15 11:28:42;;;;;;;8.82;0.88;;;7.70;85.30;;;;;;5084835;27;20745;-92
2023/01/15 11:31:09;;;;;;;12.23;1.30;;;7.60;84.70;;;;;;5091737;27;20481;-91
2023/01/15 11:33:36;;;;;;;10.38;1.10;;;7.60;85.60;;;;;;5090935;27;20771;-91
2023/01/15 11:36:17;;;;;;;11.93;1.30;;;7.60;85.60;;;;;;5091460;27;20454;-92
2023/01/15 11:38:45;;;;;;;10.45;0.90;;;7.50;87.60;;;;;;5090817;27;20391;-91
2023/01/15 11:41:20;;;;;;;10.85;1.30;;;7.50;88.00;;;;;;5090805;27;20635;-93
2023/01/15 11:52:11;;;;;;;11.65;1.00;;;7.00;92.70;;;;;;5107861;27;20403;-89
2023/01/15 11:54:41;;;;;;;11.55;1.00;;;6.90;93.30;;;;;;5089845;27;20892;-91
2023/01/15 11:57:07;;;;;;;12.90;1.10;;;6.60;93.90;;;;;;5091089;27;20445;-92
2023/01/15 11:59:33;;;;;;;12.65;1.50;;;6.50;94.70;;;;;;5089957;27;20397;-89
2023/01/15 12:02:03;;;;;;;16.58;1.70;;;6.40;95.00;;;;;;5090485;27;20391;-90
2023/01/15 12:04:34;;;;;;;13.10;1.38;;;6.20;95.40;;;;;;5089860;27;20399;-92
2023/01/15 12:07:02;;;;;;;16.13;1.13;;;6.10;96.00;;;;;;5108132;28;20422;-92
2023/01/15 12:09:47;;;;;;;10.73;1.10;;;5.70;96.50;;;;;;5090744;28;20391;-92
2023/01/15 12:12:59;;;;;;;8.07;0.60;;;5.50;97.10;;;;;;5090072;27;20414;-90
2023/01/15 12:15:35;;;;;;;7.70;0.68;;;5.30;97.30;;;;;;5006352;28;20451;-95
2023/01/15 12:18:19;;;;;;;8.20;0.50;;;5.20;97.70;;;;;;5085542;28;20409;-93
2023/01/15 12:21:27;;;;;;;5.97;0.50;;;5.10;98.10;;;;;;5090200;28;20398;-92
2023/01/15 12:24:09;;;;;;;9.43;0.73;;;5.10;98.30;;;;;;5057499;28;20541;-92
2023/01/15 12:27:04;;;;;;;10.87;0.70;;;5.20;98.60;;;;;;5089930;28;20436;-92
2023/01/15 12:29:52;;;;;;;8.70;1.00;;;5.20;98.70;;;;;;5072068;28;20750;-92
2023/01/15 12:32:23;;;;;;;15.32;0.90;;;5.20;98.80;;;;;;5091507;28;20773;-90
2023/01/15 12:34:56;;;;;;;13.32;0.93;;;5.30;98.80;;;;;;5089968;28;20394;-91
2023/01/15 12:37:42;;;;;;;14.30;1.02;;;5.30;98.80;;;;;;5090232;28;20450;-93
2023/01/15 12:40:20;;;;;;;10.02;0.90;;;5.40;98.70;;;;;;5090956;28;20456;-91
2023/01/15 12:45:49;;;;;;;9.10;0.90;;;5.40;98.50;;;;;;5107478;28;20411;-91
2023/01/15 12:48:30;;;;;;;9.82;0.90;;;5.50;98.50;;;;;;5090711;27;20399;-91
2023/01/15 12:51:00;;;;;;;9.32;0.95;;;5.50;98.50;;;;;;5093526;27;20418;-91
2023/01/15 12:53:44;;;;;;;13.70;1.25;;;5.50;98.50;;;;;;5094886;27;20428;-90
2023/01/15 12:56:35;;;;;;;11.65;1.25;;;5.50;98.60;;;;;;5093619;27;20429;-91
2023/01/15 12:59:21;;;;;;;13.13;1.05;;;5.60;98.50;;;;;;5094204;27;20463;-91
2023/01/15 13:01:56;;;;;;;10.35;1.00;;;5.60;98.50;;;;;;5094500;27;20787;-93
2023/01/15 13:04:33;;;;;;;13.20;1.00;;;5.60;98.40;;;;;;5110176;27;20421;-91
2023/01/15 13:07:15;;;;;;;10.32;1.10;;;5.60;98.40;;;;;;5093905;27;20394;-89
2023/01/15 13:10:06;;;;;;;11.23;0.70;;;5.60;98.20;;;;;;5110996;27;20731;-89
2023/01/15 13:12:32;;;;;;;9.20;0.73;;;5.60;98.10;;;;;;5092649;27;20402;-93
2023/01/15 13:14:58;;;;;;;8.47;0.80;;;5.60;98.00;;;;;;5094335;27;20405;-90
2023/01/15 13:17:32;;;;;;;7.90;0.80;;;6.00;97.90;;;;;;5092591;27;20428;-92
2023/01/15 13:20:22;;;;;;;9.90;1.23;;;5.60;97.90;;;;;;5094287;27;20512;-92
2023/01/15 13:23:14;;;;;;;9.55;1.05;;;5.60;97.80;;;;;;5093711;27;20395;-91
2023/01/15 13:25:52;;;;;;;9.98;0.82;;;5.60;98.10;;;;;;5093453;27;20436;-91
2023/01/15 13:28:32;;;;;;;6.50;0.35;;;5.50;98.10;;;;;;5094151;27;20410;-92
2023/01/15 13:31:28;;;;;;;5.57;0.32;;;5.00;97.20;;;;;;5092838;27;20442;-92
2023/01/15 13:33:57;;;;;;;3.88;0.20;;;4.60;98.10;;;;;;5093237;27;20412;-92
2023/01/15 13:36:39;;;;;;;4.68;0.38;;;4.40;98.60;;;;;;5093814;27;20422;-91
2023/01/15 13:39:10;;;;;;;5.07;0.20;;;4.20;98.80;;;;;;5110110;27;20403;-91
2023/01/15 13:44:30;;;;;;;3.40;0.20;;;4.30;99.70;;;;;;5110187;27;20807;-92
2023/01/15 13:47:04;;;;;;;5.18;0.30;;;4.20;99.60;;;;;;5093024;27;20399;-93
2023/01/15 13:49:40;;;;;;;9.93;1.10;;;4.30;99.80;;;;;;5093678;27;20467;-94
2023/01/15 13:52:18;;;;;;;14.70;1.35;;;4.40;99.90;;;;;;5092462;27;20425;-92
2023/01/15 13:54:44;;;;;;;13.47;1.43;;;4.70;99.90;;;;;;5093028;27;20402;-91
2023/01/15 13:57:32;;;;;;;14.32;1.40;;;4.80;99.90;;;;;;5092748;27;20483;-92
2023/01/15 13:59:57;;;;;;;17.58;1.75;;;5.00;99.90;;;;;;5091046;28;20403;-92
2023/01/15 14:02:31;;;;;;;17.35;1.98;;;5.30;99.90;;;;;;5094028;27;20923;-91
2023/01/15 14:04:57;;;;;;;16.67;1.67;;;5.20;99.90;;;;;;5092249;27;20856;-92